Time;durP1;ratioP1;P1;durP2;ratioP2;P2;SDS_P1;SDS_P2;PMS_P1;PMS_P2;Temp;Humidity;BMP_temperature;BMP_pressure;BME280_temperature;BME280_humidity;BME280_pressure;Samples;Min_cycle;Max_cycle;Signal;HPM_P1;HPM_P2
2023/07/18 00:01:46;;;;;;;4.03;1.80;;;17.80;89.10;;;;;;4924510;29;20040;-65
2023/07/18 00:04:12;;;;;;;5.82;1.75;;;17.70;89.60;;;;;;4925411;29;20507;-65
2023/07/18 00:06:41;;;;;;;3.17;1.90;;;17.70;90.20;;;;;;4920816;29;20044;-65
2023/07/18 00:09:07;;;;;;;3.70;1.88;;;17.70;90.30;;;;;;4921306;29;20058;-65
2023/07/18 00:11:33;;;;;;;2.60;1.70;;;17.70;90.80;;;;;;4920770;29;20507;-65
2023/07/18 00:13:59;;;;;;;5.05;2.28;;;17.70;91.00;;;;;;4926191;29;20024;-65
2023/07/18 00:16:25;;;;;;;6.10;2.17;;;17.60;91.20;;;;;;4926378;29;20036;-66
2023/07/18 00:18:52;;;;;;;3.78;2.15;;;17.60;91.70;;;;;;4922690;29;20039;-65
2023/07/18 00:21:18;;;;;;;3.05;2.00;;;17.60;92.10;;;;;;4921743;29;20044;-66
2023/07/18 00:23:43;;;;;;;3.38;1.70;;;17.50;92.20;;;;;;4919399;29;20044;-65
2023/07/18 00:26:09;;;;;;;4.82;1.95;;;17.50;92.30;;;;;;4920862;29;20086;-65
2023/07/18 00:28:36;;;;;;;2.17;1.55;;;17.40;92.70;;;;;;4916645;29;20036;-65
2023/07/18 00:31:03;;;;;;;1.92;1.42;;;17.40;93.10;;;;;;4926969;29;20035;-65
2023/07/18 00:33:29;;;;;;;4.38;2.10;;;17.30;93.30;;;;;;4925582;29;20040;-66
2023/07/18 00:35:55;;;;;;;4.05;2.17;;;17.40;93.90;;;;;;4923692;29;20032;-65
2023/07/18 00:38:21;;;;;;;5.53;2.03;;;17.30;94.30;;;;;;4923645;29;20117;-65
2023/07/18 00:40:50;;;;;;;3.83;2.30;;;17.30;94.60;;;;;;4902922;29;20047;-65
2023/07/18 00:43:17;;;;;;;3.58;2.25;;;17.30;94.90;;;;;;4903300;29;20039;-65
2023/07/18 00:45:47;;;;;;;5.05;2.17;;;17.20;95.20;;;;;;4902923;29;20453;-65
2023/07/18 00:48:14;;;;;;;2.38;1.70;;;17.20;95.40;;;;;;4926669;29;20059;-65
2023/07/18 00:50:40;;;;;;;2.58;1.92;;;17.10;95.50;;;;;;4924979;29;20032;-65
2023/07/18 00:53:06;;;;;;;5.28;2.30;;;17.10;95.60;;;;;;4907408;29;20043;-65
2023/07/18 00:55:32;;;;;;;3.67;1.90;;;17.10;95.90;;;;;;4908977;29;20412;-65
2023/07/18 00:58:01;;;;;;;3.17;2.00;;;17.10;96.30;;;;;;4922305;29;20091;-65
2023/07/18 01:00:27;;;;;;;3.38;2.17;;;17.10;96.50;;;;;;4900544;29;20147;-65
2023/07/18 01:02:53;;;;;;;4.22;2.33;;;17.10;96.60;;;;;;4918895;29;20047;-65
2023/07/18 01:05:19;;;;;;;3.15;2.08;;;17.00;96.60;;;;;;4906201;29;20074;-65
2023/07/18 01:07:46;;;;;;;2.88;1.75;;;17.00;96.60;;;;;;4924771;29;20743;-65
2023/07/18 01:10:13;;;;;;;2.60;1.73;;;17.00;96.70;;;;;;4924270;29;20835;-65
2023/07/18 01:12:39;;;;;;;3.22;2.03;;;17.00;96.90;;;;;;4904967;29;20036;-65
2023/07/18 01:15:06;;;;;;;4.25;2.08;;;16.90;97.00;;;;;;4910047;29;20166;-65
2023/07/18 01:17:31;;;;;;;3.03;1.90;;;16.90;97.00;;;;;;4919237;29;20035;-65
2023/07/18 01:19:58;;;;;;;3.63;1.90;;;17.00;97.10;;;;;;4904196;29;20095;-65
2023/07/18 01:22:23;;;;;;;4.63;2.10;;;16.90;97.10;;;;;;4922989;29;20115;-65
2023/07/18 01:24:49;;;;;;;2.22;1.65;;;16.90;97.20;;;;;;4908846;29;20469;-65
2023/07/18 01:27:15;;;;;;;4.63;2.35;;;16.90;97.30;;;;;;4925097;29;20035;-65
2023/07/18 01:29:41;;;;;;;2.58;1.70;;;16.90;97.40;;;;;;4925189;29;20036;-65
2023/07/18 01:32:07;;;;;;;2.05;1.67;;;16.90;97.20;;;;;;4926653;29;20031;-65
2023/07/18 01:34:34;;;;;;;6.88;2.05;;;16.90;97.40;;;;;;4922896;29;20035;-65
2023/07/18 01:37:00;;;;;;;4.07;2.00;;;16.80;97.60;;;;;;4905052;29;20600;-65
2023/07/18 01:39:26;;;;;;;4.90;2.15;;;16.80;97.60;;;;;;4920634;29;20039;-65
2023/07/18 01:41:52;;;;;;;5.18;2.10;;;16.80;97.80;;;;;;4928003;29;20044;-65
2023/07/18 01:44:18;;;;;;;2.63;1.80;;;16.80;97.80;;;;;;4911132;29;20036;-65
2023/07/18 01:46:44;;;;;;;2.05;1.83;;;16.70;97.80;;;;;;4925893;29;20123;-65
2023/07/18 01:49:11;;;;;;;3.92;2.15;;;16.70;97.80;;;;;;4913040;29;20059;-65
2023/07/18 01:51:37;;;;;;;3.63;1.98;;;16.70;97.80;;;;;;4928913;29;20068;-65
2023/07/18 01:54:04;;;;;;;3.38;2.15;;;16.70;98.00;;;;;;4909339;29;20153;-65
2023/07/18 01:56:29;;;;;;;3.00;2.05;;;16.70;98.20;;;;;;4927921;29;20031;-65
2023/07/18 01:58:55;;;;;;;5.53;2.40;;;16.60;98.30;;;;;;4912223;29;20452;-65
2023/07/18 02:01:21;;;;;;;7.05;2.80;;;16.60;98.40;;;;;;4912630;29;20035;-65
2023/07/18 02:03:48;;;;;;;5.43;2.50;;;16.60;98.50;;;;;;4908574;29;20091;-65
2023/07/18 02:06:14;;;;;;;2.80;2.35;;;16.60;98.50;;;;;;4912627;29;20031;-65
2023/07/18 02:08:40;;;;;;;4.18;2.33;;;16.60;98.50;;;;;;4906399;29;20881;-65
2023/07/18 02:11:06;;;;;;;6.72;2.75;;;16.50;98.50;;;;;;4912683;29;20027;-65
2023/07/18 02:13:32;;;;;;;2.30;1.80;;;16.50;98.60;;;;;;4920142;29;20032;-65
2023/07/18 02:15:58;;;;;;;7.40;1.92;;;16.40;98.70;;;;;;4923808;29;20558;-65
2023/07/18 02:18:23;;;;;;;3.55;2.15;;;16.40;98.70;;;;;;4928495;29;20409;-65
2023/07/18 02:20:49;;;;;;;5.57;2.45;;;16.40;98.80;;;;;;4903422;29;20066;-65
2023/07/18 02:23:15;;;;;;;3.00;2.10;;;16.30;99.00;;;;;;4927571;29;20091;-65
2023/07/18 02:25:41;;;;;;;5.00;2.72;;;16.30;99.20;;;;;;4922832;29;20442;-65
2023/07/18 02:28:07;;;;;;;5.32;2.30;;;16.30;99.20;;;;;;4912218;29;20135;-65
2023/07/18 02:30:33;;;;;;;3.75;2.45;;;16.30;99.30;;;;;;4903042;29;20083;-65
2023/07/18 02:32:59;;;;;;;3.58;2.15;;;16.20;99.30;;;;;;4921301;29;20055;-65
2023/07/18 02:35:25;;;;;;;4.57;2.28;;;16.20;99.60;;;;;;4912383;29;20059;-65
2023/07/18 02:37:50;;;;;;;3.28;2.17;;;16.20;99.60;;;;;;4926186;29;20047;-65
2023/07/18 02:40:17;;;;;;;3.85;2.20;;;16.20;99.60;;;;;;4911649;29;20046;-65
2023/07/18 02:42:43;;;;;;;5.05;2.30;;;16.10;99.70;;;;;;4922686;29;20078;-65
2023/07/18 02:45:09;;;;;;;3.60;2.15;;;16.10;99.80;;;;;;4911612;29;20719;-65
2023/07/18 02:47:36;;;;;;;4.10;2.40;;;16.10;99.80;;;;;;4902469;29;20108;-65
2023/07/18 02:50:02;;;;;;;2.13;1.80;;;16.10;99.90;;;;;;4921713;29;20043;-65
2023/07/18 02:52:27;;;;;;;4.35;2.40;;;16.00;99.90;;;;;;4928604;29;20031;-65
2023/07/18 02:54:53;;;;;;;3.78;2.30;;;16.00;99.90;;;;;;4909462;29;20820;-65
2023/07/18 02:57:19;;;;;;;2.67;1.98;;;16.00;99.90;;;;;;4912111;29;20504;-65
2023/07/18 02:59:45;;;;;;;5.43;2.17;;;16.00;99.90;;;;;;4907896;29;20118;-65
2023/07/18 03:02:11;;;;;;;4.93;2.50;;;16.10;99.90;;;;;;4906475;29;20139;-65
2023/07/18 03:04:38;;;;;;;4.18;2.40;;;16.00;99.90;;;;;;4907630;29;20091;-65
2023/07/18 03:07:05;;;;;;;4.45;2.47;;;16.00;99.90;;;;;;4921576;29;20027;-65
2023/07/18 03:09:34;;;;;;;5.28;2.83;;;16.00;99.90;;;;;;4924239;29;20036;-65
2023/07/18 03:12:00;;;;;;;4.22;2.58;;;16.00;99.90;;;;;;4925635;29;20044;-65
2023/07/18 03:14:27;;;;;;;6.45;2.65;;;16.00;99.90;;;;;;4909600;29;20111;-65
2023/07/18 03:16:53;;;;;;;5.28;2.80;;;16.00;99.90;;;;;;4908116;29;20120;-65
2023/07/18 03:19:19;;;;;;;6.13;2.95;;;16.00;99.90;;;;;;4906583;29;20143;-65
2023/07/18 03:21:44;;;;;;;8.25;2.97;;;16.00;99.90;;;;;;4923229;29;20131;-65
2023/07/18 03:24:10;;;;;;;4.82;2.50;;;16.00;99.90;;;;;;4910851;29;20040;-65
2023/07/18 03:26:36;;;;;;;3.95;2.55;;;16.00;99.90;;;;;;4903698;29;20038;-65
2023/07/18 03:29:04;;;;;;;3.25;2.50;;;16.00;99.90;;;;;;4923514;29;20043;-65
2023/07/18 03:31:32;;;;;;;3.97;2.40;;;15.90;99.90;;;;;;4925302;29;20663;-65
2023/07/18 03:33:58;;;;;;;4.05;3.13;;;15.90;99.90;;;;;;4926154;29;20038;-65
2023/07/18 03:36:24;;;;;;;4.28;2.00;;;15.80;99.90;;;;;;4923086;29;20035;-65
2023/07/18 03:38:51;;;;;;;3.63;2.40;;;15.80;99.90;;;;;;4920874;29;20039;-65
2023/07/18 03:41:16;;;;;;;7.45;2.70;;;15.80;99.90;;;;;;4920937;29;20028;-65
2023/07/18 03:43:42;;;;;;;3.50;2.25;;;15.80;99.90;;;;;;4917782;29;20421;-65
2023/07/18 03:46:08;;;;;;;3.47;2.40;;;15.80;99.90;;;;;;4927193;29;20028;-65
2023/07/18 03:48:34;;;;;;;2.85;2.40;;;15.80;99.90;;;;;;4925225;29;20046;-65
2023/07/18 03:51:04;;;;;;;3.47;2.40;;;15.80;99.90;;;;;;4924561;29;20036;-65
2023/07/18 03:53:30;;;;;;;3.80;2.40;;;15.80;99.90;;;;;;4922308;29;20036;-65
2023/07/18 03:56:02;;;;;;;5.20;2.38;;;15.80;99.90;;;;;;4921898;29;20048;-65
2023/07/18 03:58:29;;;;;;;3.22;2.15;;;15.80;99.90;;;;;;4919835;29;20058;-65
2023/07/18 04:00:54;;;;;;;5.70;2.70;;;15.80;99.90;;;;;;4919557;29;20507;-65
2023/07/18 04:03:26;;;;;;;7.75;2.95;;;15.80;99.90;;;;;;4927001;29;20039;-65
2023/07/18 04:05:52;;;;;;;3.75;2.40;;;15.90;99.90;;;;;;4925148;29;20058;-65
2023/07/18 04:08:18;;;;;;;7.80;3.25;;;15.80;99.90;;;;;;4924649;29;20040;-65
2023/07/18 04:10:44;;;;;;;4.97;2.63;;;15.80;99.90;;;;;;4923924;29;20035;-65
2023/07/18 04:13:10;;;;;;;4.22;2.63;;;15.80;99.90;;;;;;4922239;29;21018;-65
2023/07/18 04:15:36;;;;;;;4.63;3.30;;;15.90;99.90;;;;;;4918709;29;20127;-65
2023/07/18 04:18:02;;;;;;;4.57;2.88;;;15.90;99.90;;;;;;4920337;29;20118;-65
2023/07/18 04:20:27;;;;;;;5.60;2.70;;;15.90;99.90;;;;;;4923612;29;20039;-65
2023/07/18 04:22:53;;;;;;;5.30;3.20;;;15.90;99.90;;;;;;4926175;29;20028;-65
2023/07/18 04:25:19;;;;;;;4.85;2.83;;;16.00;99.90;;;;;;4925299;29;20481;-65
2023/07/18 04:27:46;;;;;;;5.05;3.22;;;16.00;99.90;;;;;;4922199;29;20055;-65
2023/07/18 04:30:12;;;;;;;6.10;3.15;;;16.00;99.90;;;;;;4922729;29;20071;-65
2023/07/18 04:32:40;;;;;;;5.38;3.03;;;16.00;99.90;;;;;;4918620;29;20182;-65
2023/07/18 04:35:06;;;;;;;4.60;2.60;;;16.10;99.90;;;;;;4920996;29;20035;-65
2023/07/18 04:37:32;;;;;;;6.50;3.20;;;16.10;99.90;;;;;;4919812;29;20564;-65
2023/07/18 04:39:57;;;;;;;6.38;3.33;;;16.20;99.90;;;;;;4925923;29;20039;-65
2023/07/18 04:42:23;;;;;;;7.07;3.28;;;16.20;99.90;;;;;;4925976;29;20046;-65
2023/07/18 04:44:49;;;;;;;6.47;3.42;;;16.30;99.90;;;;;;4922337;29;20032;-65
2023/07/18 04:47:14;;;;;;;6.75;3.00;;;16.30;99.90;;;;;;4915244;29;20842;-65
2023/07/18 04:49:40;;;;;;;7.70;3.03;;;16.30;99.90;;;;;;4919070;29;20493;-65
2023/07/18 04:52:07;;;;;;;4.95;3.15;;;16.40;99.90;;;;;;4920784;29;20468;-65
2023/07/18 04:54:33;;;;;;;7.10;2.97;;;16.40;99.90;;;;;;4920499;29;20121;-65
2023/07/18 04:56:59;;;;;;;7.15;3.38;;;16.50;99.90;;;;;;4925807;29;20063;-65
2023/07/18 04:59:25;;;;;;;4.50;2.72;;;16.50;99.90;;;;;;4925697;29;20654;-65
2023/07/18 05:01:53;;;;;;;5.95;2.92;;;16.60;99.90;;;;;;4922549;29;20072;-65
2023/07/18 05:04:19;;;;;;;5.72;3.03;;;16.60;99.90;;;;;;4923536;29;20035;-65
2023/07/18 05:06:45;;;;;;;6.07;3.05;;;16.70;99.90;;;;;;4927338;29;20042;-65
2023/07/18 05:09:11;;;;;;;8.00;3.30;;;16.70;99.90;;;;;;4924152;29;20031;-65
2023/07/18 05:11:37;;;;;;;6.82;3.20;;;16.80;99.90;;;;;;4923808;29;20715;-65
2023/07/18 05:14:03;;;;;;;5.43;3.03;;;16.80;99.90;;;;;;4930123;29;20039;-65
2023/07/18 05:16:29;;;;;;;4.28;2.70;;;16.90;99.90;;;;;;4925895;29;20526;-65
2023/07/18 05:18:55;;;;;;;7.03;3.47;;;17.00;99.90;;;;;;4924221;29;20044;-65
2023/07/18 05:21:21;;;;;;;7.95;3.42;;;17.00;99.90;;;;;;4926966;29;20039;-65
2023/07/18 05:23:47;;;;;;;9.07;3.08;;;17.10;99.90;;;;;;4925669;29;20043;-65
2023/07/18 05:26:12;;;;;;;7.18;3.50;;;17.20;99.90;;;;;;4924778;29;20561;-65
2023/07/18 05:28:38;;;;;;;7.43;3.42;;;17.20;99.90;;;;;;4920056;29;20047;-65
2023/07/18 05:31:11;;;;;;;6.20;2.78;;;17.30;99.90;;;;;;4926408;29;20172;-65
2023/07/18 05:33:36;;;;;;;6.03;2.97;;;17.30;99.90;;;;;;4928583;29;20632;-65
2023/07/18 05:36:03;;;;;;;6.55;3.53;;;17.40;99.90;;;;;;4922725;29;20074;-65
2023/07/18 05:38:28;;;;;;;5.07;3.13;;;17.50;99.90;;;;;;4926274;29;20732;-65
2023/07/18 05:40:54;;;;;;;7.60;3.13;;;17.60;99.90;;;;;;4924644;29;20036;-65
2023/07/18 05:43:20;;;;;;;4.55;2.92;;;17.60;99.60;;;;;;4923553;29;20036;-65
2023/07/18 05:45:45;;;;;;;7.78;3.35;;;17.60;99.70;;;;;;4921094;29;20574;-65
2023/07/18 05:48:11;;;;;;;9.48;2.97;;;17.70;99.60;;;;;;4922509;29;20039;-65
2023/07/18 05:50:37;;;;;;;6.95;3.58;;;17.80;99.10;;;;;;4928538;29;20130;-65
2023/07/18 05:53:03;;;;;;;6.70;3.65;;;17.90;99.20;;;;;;4927611;29;20043;-65
2023/07/18 05:55:29;;;;;;;7.40;3.45;;;17.90;98.90;;;;;;4926061;29;20063;-65
2023/07/18 05:57:55;;;;;;;6.55;3.58;;;18.00;98.80;;;;;;4924747;29;20063;-66
2023/07/18 06:00:21;;;;;;;5.40;3.55;;;18.10;98.90;;;;;;4923853;29;20457;-65
2023/07/18 06:02:50;;;;;;;6.68;3.22;;;18.30;98.80;;;;;;4924659;29;20818;-65
2023/07/18 06:05:16;;;;;;;6.47;3.45;;;18.50;98.60;;;;;;4922491;29;20150;-65
2023/07/18 06:07:42;;;;;;;11.98;3.20;;;18.60;98.10;;;;;;4928427;29;20035;-65
2023/07/18 06:10:07;;;;;;;5.43;3.17;;;18.70;97.70;;;;;;4927830;29;20115;-65
2023/07/18 06:12:33;;;;;;;6.60;3.45;;;18.80;97.80;;;;;;4925484;29;20062;-66
2023/07/18 06:14:59;;;;;;;6.13;3.30;;;18.80;97.60;;;;;;4923710;29;20516;-65
2023/07/18 06:17:26;;;;;;;5.00;2.63;;;18.90;97.30;;;;;;4923544;29;20131;-65
2023/07/18 06:19:52;;;;;;;5.60;3.20;;;18.90;97.10;;;;;;4921948;29;20385;-66
2023/07/18 06:22:18;;;;;;;9.65;3.65;;;19.00;97.10;;;;;;4924635;29;20069;-65
2023/07/18 06:24:45;;;;;;;7.43;3.35;;;19.00;97.00;;;;;;4926689;29;20647;-65
2023/07/18 06:27:10;;;;;;;10.02;3.55;;;19.00;96.90;;;;;;4927569;29;20050;-65
2023/07/18 06:29:36;;;;;;;8.82;3.30;;;19.00;97.00;;;;;;4925377;29;20035;-66
2023/07/18 06:32:05;;;;;;;6.30;3.55;;;19.00;97.00;;;;;;4925337;29;20408;-66
2023/07/18 06:34:31;;;;;;;9.52;4.05;;;19.10;97.00;;;;;;4922971;29;20574;-65
2023/07/18 06:37:02;;;;;;;7.22;4.00;;;19.10;96.40;;;;;;4922522;29;20035;-65
2023/07/18 06:39:29;;;;;;;8.90;3.42;;;19.20;96.30;;;;;;4920143;29;20040;-65
2023/07/18 06:41:57;;;;;;;6.25;3.05;;;19.20;96.30;;;;;;4906352;29;20039;-65
2023/07/18 06:44:23;;;;;;;5.82;3.13;;;19.30;96.50;;;;;;4928105;29;20027;-65
2023/07/18 06:46:50;;;;;;;8.18;3.53;;;19.40;96.60;;;;;;4925785;29;20099;-65
2023/07/18 06:49:18;;;;;;;8.77;3.10;;;19.40;96.30;;;;;;4923719;29;20028;-65
2023/07/18 06:51:44;;;;;;;12.00;4.00;;;19.50;96.10;;;;;;4923903;29;20051;-65
2023/07/18 06:54:10;;;;;;;6.55;3.47;;;19.60;96.00;;;;;;4923149;29;20032;-65
2023/07/18 06:56:38;;;;;;;7.15;3.35;;;19.70;95.60;;;;;;4919007;29;20040;-66
2023/07/18 06:59:04;;;;;;;7.10;3.30;;;19.80;95.60;;;;;;4917603;29;20032;-65
2023/07/18 07:01:32;;;;;;;7.15;3.58;;;19.80;95.70;;;;;;4924537;29;20042;-65
2023/07/18 07:03:58;;;;;;;7.72;3.30;;;19.90;95.30;;;;;;4926650;29;20067;-65
2023/07/18 07:06:24;;;;;;;4.15;2.67;;;20.00;95.20;;;;;;4925508;29;20066;-65
2023/07/18 07:08:51;;;;;;;6.93;2.95;;;20.00;95.50;;;;;;4922534;29;20064;-65
2023/07/18 07:11:16;;;;;;;8.00;3.10;;;20.10;94.80;;;;;;4923458;29;20039;-65
2023/07/18 07:13:42;;;;;;;6.47;3.38;;;20.10;94.80;;;;;;4919057;29;20074;-65
2023/07/18 07:16:08;;;;;;;7.93;3.10;;;20.20;94.40;;;;;;4920804;29;20071;-66
2023/07/18 07:18:34;;;;;;;7.03;3.40;;;20.10;94.80;;;;;;4927450;29;20050;-66
2023/07/18 07:21:00;;;;;;;9.18;3.33;;;20.20;94.80;;;;;;4926018;29;20039;-65
2023/07/18 07:23:26;;;;;;;4.65;3.10;;;20.30;94.50;;;;;;4926433;29;20051;-65
2023/07/18 07:25:51;;;;;;;8.80;3.20;;;20.40;94.30;;;;;;4922603;29;20024;-65
2023/07/18 07:28:19;;;;;;;8.70;4.03;;;20.50;94.20;;;;;;4923172;29;20042;-65
2023/07/18 07:30:45;;;;;;;4.97;2.75;;;20.60;93.80;;;;;;4919799;29;20047;-65
2023/07/18 07:33:10;;;;;;;6.80;3.13;;;20.60;93.70;;;;;;4924121;29;20036;-65
2023/07/18 07:35:36;;;;;;;9.27;3.28;;;20.70;93.80;;;;;;4924219;29;20043;-66
2023/07/18 07:38:02;;;;;;;6.53;2.60;;;20.90;92.80;;;;;;4926305;29;20030;-65
2023/07/18 07:40:28;;;;;;;7.85;3.38;;;20.90;92.70;;;;;;4924477;29;20039;-65
2023/07/18 07:42:53;;;;;;;7.65;2.78;;;20.90;93.00;;;;;;4922537;29;20123;-65
2023/07/18 07:45:21;;;;;;;7.88;2.65;;;20.90;92.60;;;;;;4921993;29;20043;-66
2023/07/18 07:47:48;;;;;;;6.68;2.95;;;20.90;92.50;;;;;;4923909;29;20040;-65
2023/07/18 07:50:14;;;;;;;5.60;2.55;;;20.90;92.30;;;;;;4919839;29;20037;-65
2023/07/18 07:52:40;;;;;;;7.22;2.80;;;21.00;92.10;;;;;;4919660;29;20106;-65
2023/07/18 07:55:06;;;;;;;6.40;3.10;;;21.00;92.00;;;;;;4925201;29;20043;-66
2023/07/18 07:57:32;;;;;;;12.00;3.40;;;21.20;92.00;;;;;;4923504;29;20032;-65
2023/07/18 07:59:58;;;;;;;6.20;2.22;;;21.30;91.70;;;;;;4904768;29;20504;-65
2023/07/18 08:02:24;;;;;;;5.88;2.97;;;21.30;90.90;;;;;;4921297;29;20431;-64
2023/07/18 08:04:50;;;;;;;6.50;2.30;;;21.40;90.50;;;;;;4922903;29;20435;-65
2023/07/18 08:07:16;;;;;;;5.35;2.72;;;21.50;90.20;;;;;;4922212;29;20046;-64
2023/07/18 08:09:42;;;;;;;4.32;2.67;;;21.50;90.00;;;;;;4918400;29;20031;-65
2023/07/18 08:12:10;;;;;;;7.00;2.30;;;21.60;90.20;;;;;;4925320;29;20388;-65
2023/07/18 08:14:39;;;;;;;7.47;2.25;;;21.70;89.90;;;;;;4923046;29;20040;-65
2023/07/18 08:17:05;;;;;;;6.30;2.45;;;21.80;88.10;;;;;;4911060;29;20039;-64
2023/07/18 08:19:35;;;;;;;5.72;2.10;;;21.90;87.10;;;;;;4921123;29;20046;-65
2023/07/18 08:22:03;;;;;;;7.40;2.40;;;22.00;85.30;;;;;;4920250;29;20040;-64
2023/07/18 08:24:30;;;;;;;5.72;2.38;;;22.00;86.30;;;;;;4917423;29;20457;-64
2023/07/18 08:26:56;;;;;;;3.75;2.25;;;22.10;85.60;;;;;;4917983;29;20054;-64
2023/07/18 08:29:32;;;;;;;5.28;2.35;;;22.20;85.60;;;;;;4925387;29;20444;-64
2023/07/18 08:32:01;;;;;;;9.82;2.60;;;22.30;83.90;;;;;;4923508;29;20042;-64
2023/07/18 08:34:27;;;;;;;4.15;2.50;;;22.30;83.20;;;;;;4920621;29;20643;-64
2023/07/18 08:36:53;;;;;;;6.28;2.00;;;22.40;83.90;;;;;;4920779;29;20036;-64
2023/07/18 08:39:19;;;;;;;6.28;2.13;;;22.40;81.80;;;;;;4925652;29;20736;-65
2023/07/18 08:41:46;;;;;;;3.58;2.00;;;22.50;82.20;;;;;;4923873;29;20871;-64
2023/07/18 08:44:15;;;;;;;4.78;2.30;;;22.60;82.20;;;;;;4923534;29;20039;-64
2023/07/18 08:46:45;;;;;;;6.00;1.80;;;22.60;79.40;;;;;;4928997;29;20055;-64
2023/07/18 08:49:16;;;;;;;7.68;1.90;;;22.70;79.20;;;;;;4930501;29;20522;-64
2023/07/18 08:51:42;;;;;;;4.55;1.80;;;22.70;80.00;;;;;;4927964;29;20131;-65
2023/07/18 08:54:09;;;;;;;6.20;1.63;;;22.80;78.80;;;;;;4930131;29;20086;-63
2023/07/18 08:56:36;;;;;;;7.45;2.13;;;22.80;76.90;;;;;;4927415;29;20047;-63
2023/07/18 08:59:02;;;;;;;5.72;2.03;;;22.80;78.50;;;;;;4928252;29;20027;-63
2023/07/18 09:01:28;;;;;;;5.35;2.17;;;22.80;78.20;;;;;;4923176;29;20059;-63
2023/07/18 09:03:55;;;;;;;4.45;1.60;;;22.80;76.50;;;;;;4926598;29;20171;-63
2023/07/18 09:06:23;;;;;;;4.68;2.03;;;22.80;75.70;;;;;;4902912;29;20639;-62
2023/07/18 09:08:49;;;;;;;2.53;1.60;;;22.80;76.00;;;;;;4928462;29;20902;-63
2023/07/18 09:11:19;;;;;;;5.10;1.95;;;22.90;76.80;;;;;;4929191;29;20035;-63
2023/07/18 09:13:46;;;;;;;3.00;1.70;;;23.00;74.50;;;;;;4924835;29;20072;-63
2023/07/18 09:16:22;;;;;;;3.42;1.83;;;23.00;75.20;;;;;;4922438;29;20047;-62
2023/07/18 09:18:48;;;;;;;6.43;1.95;;;23.10;75.50;;;;;;4923347;29;20043;-63
2023/07/18 09:21:14;;;;;;;4.07;1.83;;;23.10;73.80;;;;;;4927587;29;20039;-63
2023/07/18 09:23:41;;;;;;;3.58;1.65;;;23.20;74.50;;;;;;4930022;29;20048;-63
2023/07/18 09:26:16;;;;;;;3.33;1.60;;;23.30;72.50;;;;;;4927518;29;20536;-65
2023/07/18 09:28:42;;;;;;;3.50;1.67;;;23.40;70.90;;;;;;4926398;29;20125;-65
2023/07/18 09:31:20;;;;;;;4.03;2.00;;;23.40;70.80;;;;;;4927595;29;20035;-65
2023/07/18 09:33:47;;;;;;;3.97;1.90;;;23.50;71.00;;;;;;4925519;29;20040;-65
2023/07/18 09:36:15;;;;;;;3.55;1.65;;;23.50;71.80;;;;;;4924552;29;20043;-62
2023/07/18 09:38:43;;;;;;;3.75;1.67;;;23.60;70.90;;;;;;4925572;29;20051;-62
2023/07/18 09:41:10;;;;;;;5.25;1.88;;;23.60;70.30;;;;;;4929585;29;20890;-62
2023/07/18 09:43:39;;;;;;;3.08;1.48;;;23.60;68.70;;;;;;4928169;29;20031;-63
2023/07/18 09:46:06;;;;;;;5.18;1.75;;;23.70;70.00;;;;;;4929400;29;20460;-62
2023/07/18 09:48:33;;;;;;;2.35;1.33;;;23.60;68.70;;;;;;4925984;29;20028;-62
2023/07/18 09:51:01;;;;;;;3.78;1.48;;;23.60;67.70;;;;;;4923165;29;20028;-62
2023/07/18 09:53:29;;;;;;;3.80;1.27;;;23.60;67.00;;;;;;4921110;29;20504;-63
2023/07/18 09:55:57;;;;;;;4.00;1.80;;;23.70;66.80;;;;;;4920584;29;20136;-63
2023/07/18 09:58:25;;;;;;;2.45;1.55;;;23.80;65.00;;;;;;4928290;29;20046;-62
2023/07/18 10:00:53;;;;;;;4.40;1.95;;;23.80;67.40;;;;;;4926721;29;20044;-63
2023/07/18 10:03:19;;;;;;;2.83;1.27;;;23.90;65.30;;;;;;4926312;29;20119;-63
2023/07/18 10:05:45;;;;;;;5.38;1.85;;;24.00;65.10;;;;;;4922658;29;20036;-63
2023/07/18 10:08:11;;;;;;;6.07;1.45;;;24.10;65.30;;;;;;4924177;29;20043;-62
2023/07/18 10:10:37;;;;;;;4.95;1.90;;;24.10;62.20;;;;;;4920032;29;20055;-63
2023/07/18 10:13:03;;;;;;;3.95;1.40;;;24.10;63.60;;;;;;4921386;29;20519;-62
2023/07/18 10:15:29;;;;;;;4.47;1.75;;;24.20;64.80;;;;;;4925059;29;20172;-63
2023/07/18 10:18:14;;;;;;;5.13;1.75;;;24.30;63.50;;;;;;4926801;29;20390;-63
2023/07/18 10:20:40;;;;;;;4.85;1.88;;;24.40;63.40;;;;;;4923770;29;20070;-63
2023/07/18 10:23:08;;;;;;;2.97;1.10;;;24.50;64.10;;;;;;4926868;29;20493;-63
2023/07/18 10:25:33;;;;;;;5.38;1.50;;;24.60;62.60;;;;;;4926430;29;20038;-62
2023/07/18 10:28:00;;;;;;;2.60;1.58;;;24.70;61.00;;;;;;4922507;29;20031;-62
2023/07/18 10:30:41;;;;;;;4.97;1.20;;;24.80;59.60;;;;;;4920093;29;20610;-62
2023/07/18 10:33:08;;;;;;;3.92;1.25;;;24.80;59.30;;;;;;4921345;29;20028;-62
2023/07/18 10:35:39;;;;;;;2.30;1.30;;;24.80;59.40;;;;;;4926658;29;20042;-62
2023/07/18 10:38:06;;;;;;;3.80;1.45;;;24.70;59.70;;;;;;4924197;29;20035;-62
2023/07/18 10:40:43;;;;;;;2.63;1.10;;;24.80;60.30;;;;;;4923927;29;20039;-62
2023/07/18 10:43:11;;;;;;;5.20;1.70;;;24.90;59.30;;;;;;4922967;29;20139;-63
2023/07/18 10:45:41;;;;;;;8.18;1.45;;;24.70;60.00;;;;;;4919471;29;20044;-65
2023/07/18 10:48:17;;;;;;;3.78;1.33;;;24.70;59.30;;;;;;4922375;29;20047;-63
2023/07/18 10:50:44;;;;;;;3.72;1.25;;;24.70;58.60;;;;;;4925777;29;20059;-63
2023/07/18 10:53:15;;;;;;;2.95;1.42;;;24.80;59.70;;;;;;4910991;29;20035;-64
2023/07/18 10:55:41;;;;;;;4.10;1.38;;;24.80;57.90;;;;;;4924208;29;20496;-64
2023/07/18 10:58:14;;;;;;;2.10;1.40;;;24.90;59.10;;;;;;4924467;29;20042;-64
2023/07/18 11:00:40;;;;;;;4.55;1.58;;;25.10;57.70;;;;;;4922976;29;20040;-64
2023/07/18 11:03:17;;;;;;;1.75;1.17;;;25.20;56.80;;;;;;4921714;29;20039;-63
2023/07/18 11:05:46;;;;;;;6.10;1.63;;;25.30;57.90;;;;;;4918507;29;20038;-64
2023/07/18 11:08:25;;;;;;;3.60;1.55;;;25.40;57.00;;;;;;4924311;29;20036;-64
2023/07/18 11:10:59;;;;;;;3.63;1.20;;;25.50;56.80;;;;;;4925554;29;20460;-64
2023/07/18 11:13:35;;;;;;;2.55;1.20;;;25.50;55.70;;;;;;4923183;29;20123;-64
2023/07/18 11:16:06;;;;;;;3.03;1.23;;;25.60;55.90;;;;;;4924003;29;20032;-64
2023/07/18 11:18:35;;;;;;;3.45;1.17;;;25.70;55.30;;;;;;4921416;29;20182;-64
2023/07/18 11:21:05;;;;;;;3.22;1.58;;;25.70;54.20;;;;;;4921998;29;20098;-64
2023/07/18 11:23:32;;;;;;;3.50;1.10;;;25.60;53.20;;;;;;4920969;29;20400;-63
2023/07/18 11:25:58;;;;;;;2.45;1.13;;;25.60;55.90;;;;;;4927024;29;20144;-64
2023/07/18 11:28:33;;;;;;;3.45;1.10;;;25.50;55.30;;;;;;4927806;29;20777;-64
2023/07/18 11:30:59;;;;;;;;;;;25.50;54.00;;;;;;4925448;29;20485;-64
2023/07/18 11:33:29;;;;;;;3.83;1.50;;;25.40;53.90;;;;;;4923607;29;19911;-64
2023/07/18 11:35:56;;;;;;;2.13;1.30;;;25.30;54.70;;;;;;4921676;29;20113;-64
2023/07/18 11:38:28;;;;;;;1.88;1.08;;;25.30;54.90;;;;;;4923675;29;20048;-64
2023/07/18 11:40:53;;;;;;;2.60;1.27;;;25.40;54.80;;;;;;4919113;29;20040;-64
2023/07/18 11:43:20;;;;;;;2.65;1.10;;;25.50;53.70;;;;;;4923594;29;20043;-64
2023/07/18 11:45:46;;;;;;;1.85;1.13;;;25.50;53.80;;;;;;4926325;29;20046;-64
2023/07/18 11:48:16;;;;;;;2.70;1.05;;;25.50;54.00;;;;;;4924252;29;20031;-64
2023/07/18 11:50:45;;;;;;;1.92;0.95;;;25.50;53.60;;;;;;4922315;29;20126;-64
2023/07/18 11:53:12;;;;;;;2.70;1.23;;;25.60;53.10;;;;;;4922967;29;20441;-64
2023/07/18 11:55:37;;;;;;;1.80;0.95;;;25.50;53.30;;;;;;4918837;29;20700;-64
2023/07/18 11:58:07;;;;;;;1.70;1.15;;;25.70;52.40;;;;;;4921251;29;20032;-64
2023/07/18 12:00:36;;;;;;;2.50;1.20;;;25.60;50.80;;;;;;4920097;29;20047;-64
2023/07/18 12:03:02;;;;;;;2.85;1.20;;;25.50;53.10;;;;;;4925597;29;20043;-64
2023/07/18 12:05:28;;;;;;;2.33;1.08;;;25.50;52.90;;;;;;4925021;29;20036;-64
2023/07/18 12:07:54;;;;;;;1.73;1.02;;;25.60;53.60;;;;;;4922801;29;20036;-64
2023/07/18 12:10:21;;;;;;;2.55;1.10;;;25.70;51.70;;;;;;4923011;29;20795;-64
2023/07/18 12:12:47;;;;;;;3.72;1.15;;;25.80;52.60;;;;;;4898959;29;20040;-64
2023/07/18 12:15:13;;;;;;;2.90;1.42;;;25.90;52.40;;;;;;4920128;29;20236;-64
2023/07/18 12:17:39;;;;;;;6.40;1.38;;;26.00;51.90;;;;;;4915788;29;20044;-64
2023/07/18 12:20:06;;;;;;;2.95;1.02;;;26.10;53.90;;;;;;4926387;29;20094;-64
2023/07/18 12:22:32;;;;;;;2.15;1.30;;;26.10;52.50;;;;;;4922298;29;20043;-64
2023/07/18 12:24:58;;;;;;;3.05;1.30;;;26.20;52.40;;;;;;4923217;29;20075;-64
2023/07/18 12:27:24;;;;;;;2.70;1.40;;;26.20;53.10;;;;;;4922489;29;20139;-64
2023/07/18 12:29:50;;;;;;;3.20;0.98;;;26.00;52.30;;;;;;4920177;29;20028;-64
2023/07/18 12:32:16;;;;;;;1.50;0.98;;;25.90;52.40;;;;;;4907805;29;20036;-64
2023/07/18 12:34:41;;;;;;;4.00;1.73;;;25.90;52.50;;;;;;4916987;29;20040;-64
2023/07/18 12:37:08;;;;;;;2.05;1.00;;;25.90;52.30;;;;;;4922666;29;20436;-64
2023/07/18 12:39:34;;;;;;;2.20;1.02;;;26.00;52.90;;;;;;4924219;29;20044;-64
2023/07/18 12:42:00;;;;;;;2.90;1.17;;;26.10;52.40;;;;;;4923896;29;20153;-64
2023/07/18 12:44:40;;;;;;;1.73;0.95;;;26.20;51.70;;;;;;4922750;29;20071;-64
2023/07/18 12:47:07;;;;;;;2.20;1.15;;;26.20;52.20;;;;;;4920390;29;20544;-64